createdAt,value
2022-08-05T00:01:28.444Z,11.63
2022-08-05T00:03:57.068Z,12.07
2022-08-05T00:06:29.508Z,10.02
2022-08-05T00:09:00.229Z,8.23
2022-08-05T00:11:34.540Z,6.88
2022-08-05T00:14:02.452Z,7.15
2022-08-05T00:16:52.527Z,7.28
2022-08-05T00:19:19.618Z,6.40
2022-08-05T00:21:48.924Z,6.25
2022-08-05T00:24:18.950Z,5.20
2022-08-05T00:26:52.190Z,4.55
2022-08-05T00:29:22.823Z,4.65
2022-08-05T00:32:10.668Z,4.30
2022-08-05T00:34:55.422Z,4.30
2022-08-05T00:37:26.585Z,4.25
2022-08-05T00:40:02.666Z,4.03
2022-08-05T00:42:33.091Z,3.88
2022-08-05T00:44:59.774Z,3.90
2022-08-05T00:47:26.304Z,4.85
2022-08-05T00:50:12.745Z,4.18
2022-08-05T00:52:39.986Z,3.70
2022-08-05T00:55:06.541Z,3.95
2022-08-05T00:57:55.557Z,4.60
2022-08-05T01:00:25.290Z,3.85
2022-08-05T01:02:52.556Z,3.75
2022-08-05T01:05:19.572Z,4.32
2022-08-05T01:08:29.892Z,4.30
2022-08-05T01:10:38.114Z,4.05
2022-08-05T01:13:13.279Z,5.07
2022-08-05T01:15:49.754Z,4.70
2022-08-05T01:18:22.423Z,4.78
2022-08-05T01:21:07.864Z,5.18
2022-08-05T01:23:39.450Z,7.28
2022-08-05T01:26:18.598Z,6.07
2022-08-05T01:28:58.404Z,7.70
2022-08-05T01:31:51.186Z,8.18
2022-08-05T01:34:29.685Z,6.82
2022-08-05T01:37:00.743Z,5.40
2022-08-05T01:39:45.525Z,5.00
2022-08-05T01:42:14.425Z,4.10
2022-08-05T01:44:42.963Z,4.28
2022-08-05T01:47:12.694Z,6.53
2022-08-05T01:50:00.175Z,5.43
2022-08-05T01:52:27.274Z,6.07
2022-08-05T01:54:56.898Z,6.78
2022-08-05T01:58:09.367Z,5.10
2022-08-05T02:00:15.106Z,5.55
2022-08-05T02:02:46.439Z,5.30
2022-08-05T02:05:23.515Z,5.47
2022-08-05T02:07:57.822Z,4.00
2022-08-05T02:10:28.873Z,4.60
2022-08-05T02:13:01.280Z,5.32
2022-08-05T02:18:30.569Z,4.88
2022-08-05T02:20:58.922Z,4.47
2022-08-05T02:23:28.108Z,4.45
2022-08-05T02:25:54.832Z,4.63
2022-08-05T02:28:29.017Z,4.40
2022-08-05T02:31:02.321Z,4.93
2022-08-05T02:33:38.534Z,5.63
2022-08-05T02:36:09.394Z,4.88
2022-08-05T02:38:37.426Z,5.07
2022-08-05T02:41:14.639Z,5.63
2022-08-05T02:44:06.627Z,5.35
2022-08-05T02:46:33.206Z,4.97
2022-08-05T02:49:01.202Z,5.22
2022-08-05T02:51:28.149Z,5.40
2022-08-05T02:54:34.968Z,5.10
2022-08-05T02:57:02.136Z,5.53
2022-08-05T02:59:47.808Z,5.20
2022-08-05T03:02:19.116Z,5.75
2022-08-05T03:04:48.037Z,6.70
2022-08-05T03:07:40.375Z,5.90
2022-08-05T03:10:07.853Z,6.25
2022-08-05T03:12:35.441Z,5.65
2022-08-05T03:15:02.035Z,6.20
2022-08-05T03:17:28.537Z,7.53
2022-08-05T03:19:55.305Z,6.50
2022-08-05T03:22:31.920Z,6.28
2022-08-05T03:25:11.749Z,7.07
2022-08-05T03:28:00.023Z,6.70
2022-08-05T03:30:30.300Z,6.72
2022-08-05T03:33:04.388Z,6.57
2022-08-05T03:35:40.853Z,6.90
2022-08-05T03:38:08.217Z,5.97
2022-08-05T03:40:35.736Z,6.78
2022-08-05T03:43:58.363Z,6.90
2022-08-05T03:45:57.861Z,6.40
2022-08-05T03:48:29.429Z,7.05
2022-08-05T03:52:50.493Z,6.18
2022-08-05T03:55:49.881Z,6.97
2022-08-05T03:56:58.921Z,5.93
2022-08-05T03:59:46.503Z,6.85
2022-08-05T04:02:17.542Z,6.45
2022-08-05T04:05:02.370Z,6.03
2022-08-05T04:07:30.446Z,7.13
2022-08-05T04:09:59.498Z,7.70
2022-08-05T04:12:29.844Z,6.15
2022-08-05T04:14:58.562Z,7.07
2022-08-05T04:17:25.357Z,7.50
2022-08-05T04:20:19.875Z,10.75
2022-08-05T04:22:46.925Z,9.50
2022-08-05T04:25:15.378Z,13.13
2022-08-05T04:27:56.423Z,9.23
2022-08-05T04:30:24.614Z,9.45
2022-08-05T04:32:53.241Z,9.35
2022-08-05T04:35:20.088Z,9.57
2022-08-05T04:38:02.322Z,7.78
2022-08-05T04:40:36.428Z,7.85
2022-08-05T04:43:03.658Z,6.55
2022-08-05T04:45:47.807Z,7.43
2022-08-05T04:48:18.534Z,6.40
2022-08-05T04:51:03.075Z,6.95
2022-08-05T04:53:36.496Z,7.80
2022-08-05T04:56:33.214Z,6.78
2022-08-05T04:58:52.124Z,8.60
2022-08-05T05:02:07.981Z,9.43
2022-08-05T05:04:06.292Z,8.45
2022-08-05T05:06:36.550Z,8.20
2022-08-05T05:09:14.073Z,7.38
2022-08-05T05:11:54.614Z,7.28
2022-08-05T05:14:27.895Z,6.80
2022-08-05T05:17:01.889Z,6.93
2022-08-05T05:19:37.296Z,6.50
2022-08-05T05:22:23.427Z,7.05
2022-08-05T05:24:58.376Z,8.07
2022-08-05T05:27:41.552Z,7.28
2022-08-05T05:30:28.765Z,6.75
2022-08-05T05:32:56.676Z,6.43
2022-08-05T05:35:23.318Z,7.90
2022-08-05T05:38:01.302Z,7.10
2022-08-05T05:40:29.489Z,7.50
2022-08-05T05:42:56.771Z,7.07
2022-08-05T05:45:24.534Z,6.65
2022-08-05T05:48:06.409Z,7.13
2022-08-05T05:50:35.550Z,6.50
2022-08-05T05:53:22.212Z,7.30
2022-08-05T05:55:51.572Z,6.30
2022-08-05T05:58:30.138Z,7.65
2022-08-05T06:01:02.097Z,6.75
2022-08-05T06:04:01.342Z,7.57
2022-08-05T06:06:28.024Z,7.60
2022-08-05T06:08:58.130Z,7.32
2022-08-05T06:11:24.595Z,6.97
2022-08-05T06:13:53.973Z,6.60
2022-08-05T06:16:28.321Z,7.68
2022-08-05T06:19:00.947Z,6.25
2022-08-05T06:21:35.967Z,6.65
2022-08-05T06:24:11.293Z,7.25
2022-08-05T06:26:51.614Z,7.40
2022-08-05T06:29:23.508Z,6.97
2022-08-05T06:31:53.241Z,6.70
2022-08-05T06:34:20.039Z,6.95
2022-08-05T06:36:58.269Z,6.40
2022-08-05T06:39:27.137Z,6.35
2022-08-05T06:41:55.464Z,5.90
2022-08-05T06:44:22.576Z,6.47
2022-08-05T06:46:50.774Z,5.60
2022-08-05T06:49:17.698Z,5.93
2022-08-05T06:51:45.538Z,6.10
2022-08-05T06:54:12.086Z,6.03
2022-08-05T06:56:54.631Z,6.65
2022-08-05T06:59:38.716Z,5.20
2022-08-05T07:02:08.922Z,5.70
2022-08-05T07:04:35.381Z,5.28
2022-08-05T07:07:03.282Z,5.35
2022-08-05T07:09:40.412Z,5.97
2022-08-05T07:12:07.342Z,4.78
2022-08-05T07:14:54.064Z,5.63
2022-08-05T07:18:01.691Z,4.55
2022-08-05T07:22:54.084Z,4.75
2022-08-05T07:25:53.904Z,4.70
2022-08-05T07:28:11.252Z,4.45
2022-08-05T07:30:39.729Z,4.10
2022-08-05T07:33:16.088Z,4.25
2022-08-05T07:36:03.190Z,3.85
2022-08-05T07:38:33.210Z,4.18
2022-08-05T07:41:35.183Z,3.97
2022-08-05T07:43:57.536Z,3.80
2022-08-05T07:46:27.730Z,4.15
2022-08-05T07:49:02.100Z,3.78
2022-08-05T07:51:40.243Z,3.40
2022-08-05T07:54:08.515Z,3.25
2022-08-05T07:57:02.643Z,2.60
2022-08-05T07:59:31.090Z,3.38
2022-08-05T08:02:15.475Z,2.78
2022-08-05T08:04:45.023Z,2.65
2022-08-05T08:07:11.971Z,2.40
2022-08-05T08:09:38.405Z,2.40
2022-08-05T08:12:11.508Z,2.30
2022-08-05T08:14:46.845Z,2.05
2022-08-05T08:17:15.734Z,2.08
2022-08-05T08:20:42.614Z,1.70
2022-08-05T08:22:30.074Z,1.80
2022-08-05T08:24:56.463Z,2.05
2022-08-05T08:27:40.279Z,1.75
2022-08-05T08:30:29.382Z,1.65
2022-08-05T08:33:08.207Z,1.25
2022-08-05T08:35:41.224Z,1.60
2022-08-05T08:38:19.084Z,1.45
2022-08-05T08:41:05.965Z,1.23
2022-08-05T08:45:23.751Z,1.20
2022-08-05T08:46:20.741Z,1.35
2022-08-05T08:49:06.121Z,1.67
2022-08-05T08:52:03.412Z,1.55
2022-08-05T08:54:27.510Z,1.17
2022-08-05T08:56:54.173Z,1.10
2022-08-05T08:59:23.252Z,1.10
2022-08-05T09:01:56.970Z,1.13
2022-08-05T09:04:30.616Z,1.05
2022-08-05T09:06:57.605Z,0.80
2022-08-05T09:09:24.842Z,1.02
2022-08-05T09:11:55.339Z,1.45
2022-08-05T09:14:57.984Z,0.98
2022-08-05T09:17:41.021Z,1.25
2022-08-05T09:20:02.847Z,1.13
2022-08-05T09:22:52.071Z,1.25
2022-08-05T09:25:23.928Z,1.48
2022-08-05T09:28:15.867Z,1.33
2022-08-05T09:30:55.225Z,0.77
2022-08-05T09:33:23.141Z,0.98
2022-08-05T09:36:11.608Z,1.08
2022-08-05T09:38:56.586Z,0.70
2022-08-05T09:41:23.698Z,1.17
2022-08-05T09:43:50.144Z,1.75
2022-08-05T09:46:27.757Z,1.48
2022-08-05T09:48:55.480Z,1.30
2022-08-05T09:51:36.610Z,1.35
2022-08-05T09:54:05.315Z,1.35
2022-08-05T09:56:35.757Z,1.13
2022-08-05T09:59:04.224Z,1.05
2022-08-05T10:01:33.583Z,1.30
2022-08-05T10:04:03.245Z,1.00
2022-08-05T10:06:31.061Z,0.80
2022-08-05T10:09:25.319Z,1.00
2022-08-05T10:11:55.000Z,1.25
2022-08-05T10:14:30.234Z,0.95
2022-08-05T10:17:37.815Z,0.85
2022-08-05T10:20:04.135Z,0.60
2022-08-05T10:22:38.033Z,0.50
2022-08-05T10:25:09.632Z,0.60
2022-08-05T10:28:12.699Z,0.70
2022-08-05T10:31:20.605Z,0.60
2022-08-05T10:33:14.652Z,0.80
2022-08-05T10:35:44.202Z,0.80
2022-08-05T10:38:12.553Z,0.77
2022-08-05T10:40:45.025Z,0.60
2022-08-05T10:43:35.610Z,0.70
2022-08-05T10:46:06.296Z,0.77
2022-08-05T10:48:52.807Z,0.50
2022-08-05T10:51:23.224Z,0.65
2022-08-05T10:54:01.091Z,0.47
2022-08-05T10:56:45.000Z,0.68
2022-08-05T11:00:02.606Z,0.55
2022-08-05T11:02:14.090Z,0.38
2022-08-05T11:04:57.037Z,0.50
2022-08-05T11:07:33.049Z,0.63
2022-08-05T11:10:21.358Z,0.68
2022-08-05T11:12:50.792Z,0.60
2022-08-05T11:15:43.951Z,0.50
2022-08-05T11:18:24.417Z,0.40
2022-08-05T11:20:51.514Z,0.55
2022-08-05T11:24:04.528Z,0.60
2022-08-05T11:26:28.815Z,0.40
2022-08-05T11:29:11.617Z,0.65
2022-08-05T11:31:57.073Z,0.43
2022-08-05T11:34:37.553Z,0.38
2022-08-05T11:37:06.295Z,0.40
2022-08-05T11:40:00.367Z,0.60
2022-08-05T11:42:31.498Z,0.95
2022-08-05T11:45:01.973Z,0.63
2022-08-05T11:47:48.462Z,0.60
2022-08-05T11:50:16.629Z,0.63
2022-08-05T11:52:43.989Z,0.47
2022-08-05T11:55:13.158Z,0.60
2022-08-05T11:58:10.146Z,0.60
2022-08-05T12:00:31.729Z,0.60
2022-08-05T12:02:58.410Z,0.28
2022-08-05T12:05:32.367Z,0.50
2022-08-05T12:08:10.935Z,0.90
2022-08-05T12:10:45.744Z,0.30
2022-08-05T12:13:27.610Z,0.43
2022-08-05T12:16:03.888Z,0.43
2022-08-05T12:18:40.729Z,0.40
2022-08-05T12:21:17.473Z,0.90
2022-08-05T12:23:53.109Z,0.52
2022-08-05T12:26:19.865Z,0.30
2022-08-05T12:28:46.448Z,0.35
2022-08-05T12:31:23.690Z,0.70
2022-08-05T12:34:00.184Z,0.50
2022-08-05T12:36:28.006Z,0.43
2022-08-05T12:38:55.265Z,0.70
2022-08-05T12:41:21.689Z,0.50
2022-08-05T12:44:02.692Z,0.47
2022-08-05T12:46:31.332Z,0.30
2022-08-05T12:48:59.034Z,0.55
2022-08-05T12:52:12.324Z,0.50
2022-08-05T12:54:23.541Z,0.40
2022-08-05T12:56:51.308Z,0.45
2022-08-05T12:59:27.415Z,0.60
2022-08-05T13:02:10.297Z,0.77
2022-08-05T13:04:52.190Z,0.40
2022-08-05T13:09:58.894Z,0.50
2022-08-05T13:12:28.545Z,0.60
2022-08-05T13:15:05.245Z,0.90
2022-08-05T13:17:41.394Z,0.43
2022-08-05T13:20:11.797Z,0.68
2022-08-05T13:22:39.125Z,0.70
2022-08-05T13:25:19.265Z,0.50
2022-08-05T13:27:52.302Z,0.60
2022-08-05T13:30:32.507Z,0.55
2022-08-05T13:33:02.269Z,0.50
2022-08-05T13:35:42.676Z,0.40
2022-08-05T13:38:13.374Z,0.35
2022-08-05T13:40:51.599Z,0.55
2022-08-05T13:43:22.186Z,0.50
2022-08-05T13:45:48.821Z,0.52
2022-08-05T13:49:00.179Z,0.57
2022-08-05T13:51:11.146Z,0.60
2022-08-05T13:53:48.028Z,0.43
2022-08-05T13:56:18.474Z,0.68
2022-08-05T13:58:53.359Z,0.50
2022-08-05T14:01:23.688Z,0.60
2022-08-05T14:04:12.739Z,0.50
2022-08-05T14:06:39.180Z,0.25
2022-08-05T14:09:14.037Z,0.40
2022-08-05T14:12:04.452Z,0.30
2022-08-05T14:14:32.534Z,0.60
2022-08-05T14:17:00.316Z,0.40
2022-08-05T14:19:27.139Z,0.40
2022-08-05T14:22:08.312Z,0.40
2022-08-05T14:24:39.717Z,0.40
2022-08-05T14:27:17.435Z,0.30
2022-08-05T14:29:44.499Z,0.70
2022-08-05T14:32:27.764Z,0.50
2022-08-05T14:34:56.851Z,0.80
2022-08-05T14:37:45.664Z,0.50
2022-08-05T14:40:14.206Z,0.63
2022-08-05T14:42:43.451Z,0.35
2022-08-05T14:45:10.160Z,0.50
2022-08-05T14:48:02.913Z,0.50
2022-08-05T14:50:23.163Z,0.40
2022-08-05T14:52:57.645Z,0.70
2022-08-05T14:55:26.047Z,0.82
2022-08-05T14:58:11.595Z,0.60
2022-08-05T15:00:39.240Z,0.60
2022-08-05T15:03:25.494Z,0.52
2022-08-05T15:06:07.877Z,0.50
2022-08-05T15:09:01.244Z,0.50
2022-08-05T15:11:24.751Z,0.70
2022-08-05T15:14:11.270Z,0.50
2022-08-05T15:16:46.683Z,0.65
2022-08-05T15:19:23.276Z,0.80
2022-08-05T15:21:50.314Z,0.80
2022-08-05T15:24:16.752Z,0.60
2022-08-05T15:26:43.091Z,0.40
2022-08-05T15:29:10.290Z,0.40
2022-08-05T15:31:36.857Z,0.50
2022-08-05T15:34:19.280Z,0.45
2022-08-05T15:36:49.706Z,0.50
2022-08-05T15:41:01.108Z,0.50
2022-08-05T15:42:02.600Z,0.68
2022-08-05T15:44:48.821Z,0.38
2022-08-05T15:47:16.177Z,0.60
2022-08-05T15:49:53.290Z,0.70
2022-08-05T15:52:51.769Z,0.60
2022-08-05T15:55:15.474Z,0.40
2022-08-05T15:57:42.639Z,0.80
2022-08-05T16:00:11.881Z,0.80
2022-08-05T16:02:38.690Z,0.43
2022-08-05T16:05:05.569Z,0.40
2022-08-05T16:07:36.149Z,0.70
2022-08-05T16:10:02.959Z,0.50
2022-08-05T16:12:29.397Z,0.65
2022-08-05T16:14:57.484Z,0.40
2022-08-05T16:17:24.311Z,0.90
2022-08-05T16:20:04.843Z,1.10
2022-08-05T16:22:37.445Z,0.60
2022-08-05T16:25:09.338Z,0.77
2022-08-05T16:28:00.237Z,0.40
2022-08-05T16:30:26.255Z,0.40
2022-08-05T16:32:55.501Z,0.70
2022-08-05T16:35:28.011Z,0.93
2022-08-05T16:38:15.047Z,0.90
2022-08-05T16:40:51.748Z,0.90
2022-08-05T16:43:23.468Z,0.60
2022-08-05T16:46:05.868Z,0.95
2022-08-05T16:48:35.329Z,0.88
2022-08-05T16:51:02.157Z,1.95
2022-08-05T16:54:02.125Z,0.95
2022-08-05T16:56:16.962Z,1.30
2022-08-05T16:58:43.586Z,0.70
2022-08-05T17:01:10.568Z,0.82
2022-08-05T17:03:37.385Z,1.15
2022-08-05T17:06:05.509Z,0.80
2022-08-05T17:08:33.417Z,1.77
2022-08-05T17:11:12.767Z,1.08
2022-08-05T17:13:43.654Z,0.93
2022-08-05T17:16:30.299Z,1.45
2022-08-05T17:18:56.632Z,1.13
2022-08-05T17:21:23.756Z,0.77
2022-08-05T17:24:05.572Z,0.90
2022-08-05T17:26:36.999Z,0.88
2022-08-05T17:29:09.771Z,0.65
2022-08-05T17:31:56.505Z,0.90
2022-08-05T17:34:30.190Z,1.00
2022-08-05T17:36:59.405Z,1.65
2022-08-05T17:39:33.938Z,1.10
2022-08-05T17:42:19.254Z,1.15
2022-08-05T17:44:50.416Z,0.70
2022-08-05T17:47:21.802Z,1.42
2022-08-05T17:49:56.769Z,1.25
2022-08-05T17:52:27.255Z,1.55
2022-08-05T17:54:53.870Z,1.20
2022-08-05T17:57:21.860Z,0.90
2022-08-05T18:00:04.907Z,1.00
2022-08-05T18:02:32.370Z,1.35
2022-08-05T18:05:02.677Z,1.05
2022-08-05T18:07:40.887Z,0.70
2022-08-05T18:10:09.887Z,0.60
2022-08-05T18:12:38.241Z,0.80
2022-08-05T18:15:05.076Z,0.57
2022-08-05T18:17:59.098Z,1.10
2022-08-05T18:20:19.244Z,0.70
2022-08-05T18:22:57.570Z,0.60
2022-08-05T18:25:25.027Z,0.82
2022-08-05T18:27:52.541Z,0.90
2022-08-05T18:30:19.409Z,0.63
2022-08-05T18:32:53.700Z,0.55
2022-08-05T18:35:49.654Z,0.80
2022-08-05T18:38:18.925Z,0.98
2022-08-05T18:41:57.878Z,0.63
2022-08-05T18:43:37.974Z,0.60
2022-08-05T18:46:09.675Z,0.90
2022-08-05T18:48:36.692Z,0.90
2022-08-05T18:52:04.582Z,1.05
2022-08-05T18:54:13.938Z,1.20
2022-08-05T18:56:40.359Z,0.60
2022-08-05T18:59:43.838Z,0.73
2022-08-05T19:01:57.152Z,7.45
2022-08-05T19:04:29.237Z,1.80
2022-08-05T19:06:55.670Z,4.25
2022-08-05T19:09:22.131Z,3.88
2022-08-05T19:12:01.022Z,1.42
2022-08-05T19:14:37.974Z,0.80
2022-08-05T19:17:15.506Z,1.25
2022-08-05T19:19:46.991Z,0.95
2022-08-05T19:22:17.355Z,0.95
2022-08-05T19:24:55.836Z,1.20
2022-08-05T19:27:24.035Z,1.10
2022-08-05T19:29:56.046Z,1.38
2022-08-05T19:32:23.169Z,1.00
2022-08-05T19:34:55.332Z,1.23
2022-08-05T19:37:22.612Z,0.90
2022-08-05T19:40:01.762Z,1.05
2022-08-05T19:42:35.417Z,1.30
2022-08-05T19:45:02.846Z,1.02
2022-08-05T19:47:32.746Z,1.00
2022-08-05T19:50:00.978Z,0.90
2022-08-05T19:52:31.716Z,0.90
2022-08-05T19:55:00.442Z,1.23
2022-08-05T19:57:47.657Z,1.13
2022-08-05T20:00:20.702Z,0.98
2022-08-05T20:02:47.342Z,1.13
2022-08-05T20:05:24.108Z,8.38
2022-08-05T20:07:55.036Z,6.03
2022-08-05T20:10:25.142Z,4.13
2022-08-05T20:12:51.652Z,1.60
2022-08-05T20:15:48.124Z,3.15
2022-08-05T20:18:10.042Z,1.90
2022-08-05T20:20:51.941Z,1.15
2022-08-05T20:23:22.401Z,0.93
2022-08-05T20:25:48.850Z,0.80
2022-08-05T20:28:18.493Z,0.98
2022-08-05T20:30:44.921Z,0.90
2022-08-05T20:33:11.555Z,1.27
2022-08-05T20:35:45.554Z,1.20
2022-08-05T20:38:14.414Z,1.52
2022-08-05T20:40:50.512Z,1.00
2022-08-05T20:43:17.272Z,0.90
2022-08-05T20:46:03.824Z,1.30
2022-08-05T20:48:30.193Z,1.17
2022-08-05T20:50:56.545Z,1.20
2022-08-05T20:53:37.057Z,1.80
2022-08-05T20:56:09.496Z,1.65
2022-08-05T20:58:45.293Z,1.90
2022-08-05T21:01:11.772Z,1.60
2022-08-05T21:03:39.847Z,2.03
2022-08-05T21:06:27.681Z,1.20
2022-08-05T21:08:55.239Z,1.40
2022-08-05T21:12:09.457Z,1.70
2022-08-05T21:14:08.041Z,1.45
2022-08-05T21:16:34.691Z,1.27
2022-08-05T21:19:02.009Z,1.23
2022-08-05T21:21:44.139Z,1.38
2022-08-05T21:24:16.809Z,1.30
2022-08-05T21:26:50.580Z,1.10
2022-08-05T21:29:26.340Z,1.10
2022-08-05T21:31:53.257Z,1.55
2022-08-05T21:34:20.349Z,1.20
2022-08-05T21:36:49.078Z,1.20
2022-08-05T21:39:16.822Z,1.63
2022-08-05T21:41:52.782Z,1.65
2022-08-05T21:44:27.987Z,1.33
2022-08-05T21:46:58.117Z,1.40
2022-08-05T21:50:00.030Z,0.90
2022-08-05T21:52:16.015Z,0.90
2022-08-05T21:54:54.975Z,0.80
2022-08-05T21:57:31.581Z,1.20
2022-08-05T22:00:10.659Z,0.90
2022-08-05T22:02:41.773Z,0.75
2022-08-05T22:05:09.498Z,1.10
2022-08-05T22:07:39.956Z,1.10
2022-08-05T22:10:26.798Z,1.10
2022-08-05T22:12:54.764Z,1.30
2022-08-05T22:16:00.852Z,0.93
2022-08-05T22:18:11.162Z,0.70
2022-08-05T22:20:39.159Z,0.73
2022-08-05T22:24:01.214Z,0.73
2022-08-05T22:26:30.433Z,0.93
2022-08-05T22:28:56.819Z,0.70
2022-08-05T22:31:24.861Z,0.90
2022-08-05T22:34:01.456Z,0.80
2022-08-05T22:36:28.918Z,0.95
2022-08-05T22:38:55.794Z,0.98
2022-08-05T22:42:04.766Z,0.93
2022-08-05T22:44:08.809Z,0.70
2022-08-05T22:46:39.603Z,0.88
2022-08-05T22:49:12.413Z,1.00
2022-08-05T22:52:05.736Z,1.35
2022-08-05T22:54:35.523Z,1.33
2022-08-05T22:57:02.821Z,1.02
2022-08-05T22:59:43.693Z,1.20
2022-08-05T23:02:16.533Z,1.48
2022-08-05T23:04:43.857Z,1.08
2022-08-05T23:07:18.777Z,1.50
2022-08-05T23:09:58.199Z,0.73
2022-08-05T23:12:32.181Z,0.82
2022-08-05T23:15:00.568Z,1.23
2022-08-05T23:17:34.329Z,0.85
2022-08-05T23:20:05.237Z,1.13
2022-08-05T23:22:31.884Z,1.10
2022-08-05T23:24:59.820Z,1.10
2022-08-05T23:27:31.320Z,1.75
2022-08-05T23:30:12.980Z,1.00
2022-08-05T23:32:45.098Z,1.05
2022-08-05T23:35:11.897Z,1.13
2022-08-05T23:37:39.289Z,1.30
2022-08-05T23:40:07.767Z,1.42
2022-08-05T23:42:37.249Z,1.20
2022-08-05T23:45:04.538Z,1.42
2022-08-05T23:47:47.553Z,1.42
2022-08-05T23:50:14.527Z,2.17
2022-08-05T23:52:49.696Z,1.10
2022-08-05T23:55:17.878Z,1.45
2022-08-05T23:57:44.307Z,1.42
